Time;durP1;ratioP1;P1;durP2;ratioP2;P2;SDS_P1;SDS_P2;PMS_P1;PMS_P2;Temp;Humidity;BMP_temperature;BMP_pressure;BME280_temperature;BME280_humidity;BME280_pressure;Samples;Min_cycle;Max_cycle;Signal;HPM_P1;HPM_P2
2021/04/09 00:02:09;;;;;;;3.83;1.87;;;;;;;;;;5119182;28;20264;-70
2021/04/09 00:04:38;;;;;;;3.53;1.23;;;;;;;;;;5118867;28;20225;-71
2021/04/09 00:07:06;;;;;;;3.10;1.40;;;;;;;;;;5119028;28;20203;-70
2021/04/09 00:09:33;;;;;;;4.10;1.70;;;;;;;;;;5118879;28;20287;-70
2021/04/09 00:12:00;;;;;;;4.33;1.90;;;;;;;;;;5118879;28;20232;-70
2021/04/09 00:14:27;;;;;;;3.73;1.57;;;;;;;;;;5118677;28;20316;-70
2021/04/09 00:16:54;;;;;;;5.13;1.50;;;;;;;;;;5118874;28;20263;-70
2021/04/09 00:19:25;;;;;;;2.60;1.50;;;;;;;;;;5118617;28;20205;-70
2021/04/09 00:21:53;;;;;;;6.23;1.47;;;;;;;;;;5118617;28;20200;-71
2021/04/09 00:24:21;;;;;;;7.80;1.80;;;;;;;;;;5118305;28;20328;-70
2021/04/09 00:26:48;;;;;;;3.07;1.53;;;;;;;;;;5118737;28;20208;-71
2021/04/09 00:29:15;;;;;;;2.43;1.70;;;;;;;;;;5118451;28;20208;-71
2021/04/09 00:31:42;;;;;;;8.40;2.40;;;;;;;;;;5118521;28;20219;-71
2021/04/09 00:34:10;;;;;;;4.67;1.30;;;;;;;;;;5117952;28;20215;-71
2021/04/09 00:36:37;;;;;;;1.80;1.30;;;;;;;;;;5118223;28;20782;-71
2021/04/09 00:39:06;;;;;;;3.40;1.20;;;;;;;;;;5118633;28;20213;-71
2021/04/09 00:41:33;;;;;;;1.90;1.17;;;;;;;;;;5118245;28;20287;-71
2021/04/09 00:44:00;;;;;;;3.47;1.33;;;;;;;;;;5118121;28;20284;-71
2021/04/09 00:46:27;;;;;;;4.50;1.93;;;;;;;;;;5118612;28;20236;-70
2021/04/09 00:48:54;;;;;;;1.97;1.23;;;;;;;;;;5118517;28;20215;-70
2021/04/09 00:51:21;;;;;;;1.70;1.00;;;;;;;;;;5118480;28;20240;-71
2021/04/09 00:53:48;;;;;;;4.23;1.20;;;;;;;;;;5119040;28;20239;-71
2021/04/09 00:56:18;;;;;;;3.57;1.33;;;;;;;;;;5118177;28;20225;-70
2021/04/09 00:58:46;;;;;;;4.53;1.20;;;;;;;;;;5118070;28;20208;-70
2021/04/09 01:01:13;;;;;;;1.53;1.10;;;;;;;;;;5118452;28;20204;-70
2021/04/09 01:03:40;;;;;;;4.93;1.40;;;;;;;;;;5118257;27;20300;-70
2021/04/09 01:06:07;;;;;;;2.70;1.10;;;;;;;;;;5118334;28;20263;-70
2021/04/09 01:08:36;;;;;;;5.90;1.43;;;;;;;;;;5118064;28;20208;-70
2021/04/09 01:11:03;;;;;;;1.70;1.10;;;;;;;;;;5118094;28;20287;-70
2021/04/09 01:13:31;;;;;;;4.17;0.93;;;;;;;;;;5117965;28;20272;-70
2021/04/09 01:15:59;;;;;;;2.97;1.30;;;;;;;;;;5118204;28;20720;-71
2021/04/09 01:18:30;;;;;;;3.03;1.20;;;;;;;;;;5118079;28;20283;-70
2021/04/09 01:20:59;;;;;;;5.50;1.20;;;;;;;;;;5118258;28;20204;-71
2021/04/09 01:23:36;;;;;;;1.83;1.07;;;;;;;;;;5118182;28;20228;-70
2021/04/09 01:26:21;;;;;;;4.27;1.17;;;;;;;;;;5118091;28;20307;-71
2021/04/09 01:28:54;;;;;;;2.00;1.17;;;;;;;;;;5117654;28;20370;-71
2021/04/09 01:31:33;;;;;;;5.50;1.50;;;;;;;;;;5118101;28;20286;-71
2021/04/09 01:34:01;;;;;;;2.13;1.00;;;;;;;;;;5117696;28;20292;-71
2021/04/09 01:36:32;;;;;;;1.43;1.00;;;;;;;;;;5117931;28;20284;-70
2021/04/09 01:39:02;;;;;;;6.73;1.13;;;;;;;;;;5118062;28;20236;-71
2021/04/09 01:41:29;;;;;;;5.30;0.90;;;;;;;;;;5117699;28;20239;-71
2021/04/09 01:43:58;;;;;;;5.70;1.20;;;;;;;;;;5117619;28;20262;-70
2021/04/09 01:46:26;;;;;;;2.07;1.00;;;;;;;;;;5119592;28;20233;-70
2021/04/09 01:48:54;;;;;;;5.83;1.10;;;;;;;;;;5121665;28;20296;-71
2021/04/09 01:51:22;;;;;;;4.00;1.17;;;;;;;;;;5121565;28;20261;-70
2021/04/09 01:53:49;;;;;;;3.80;1.00;;;;;;;;;;5121711;28;20296;-71
2021/04/09 01:56:17;;;;;;;3.87;1.47;;;;;;;;;;5121583;28;20220;-70
2021/04/09 01:58:44;;;;;;;6.40;1.30;;;;;;;;;;5121338;28;20269;-70
2021/04/09 02:01:12;;;;;;;2.93;1.23;;;;;;;;;;5121610;28;20235;-71
2021/04/09 02:03:40;;;;;;;7.00;1.63;;;;;;;;;;5121229;28;20213;-70
2021/04/09 02:06:09;;;;;;;3.80;1.20;;;;;;;;;;5121275;28;20303;-70
2021/04/09 02:08:36;;;;;;;1.20;1.00;;;;;;;;;;5121345;28;20268;-70
2021/04/09 02:11:04;;;;;;;5.40;1.30;;;;;;;;;;5121221;28;20728;-70
2021/04/09 02:13:32;;;;;;;2.93;1.00;;;;;;;;;;5117351;28;20240;-70
2021/04/09 02:15:59;;;;;;;2.20;1.13;;;;;;;;;;5120807;28;20279;-71
2021/04/09 02:18:27;;;;;;;3.17;1.33;;;;;;;;;;5120971;28;20257;-70
2021/04/09 02:20:56;;;;;;;1.90;1.30;;;;;;;;;;5120918;28;20632;-70
2021/04/09 02:23:24;;;;;;;4.90;1.30;;;;;;;;;;5120827;28;20228;-70
2021/04/09 02:25:51;;;;;;;2.00;1.03;;;;;;;;;;5120900;28;20249;-71
2021/04/09 02:28:18;;;;;;;4.07;1.00;;;;;;;;;;5120730;28;20228;-71
2021/04/09 02:31:02;;;;;;;5.20;1.27;;;;;;;;;;5120728;28;20375;-71
2021/04/09 02:33:29;;;;;;;2.97;1.10;;;;;;;;;;5120679;28;20559;-71
2021/04/09 02:35:57;;;;;;;4.43;1.00;;;;;;;;;;5120471;28;20284;-71
2021/04/09 02:38:24;;;;;;;2.63;1.60;;;;;;;;;;5120453;28;20646;-70
2021/04/09 02:40:52;;;;;;;4.27;1.23;;;;;;;;;;5120733;28;20207;-70
2021/04/09 02:43:19;;;;;;;2.00;1.23;;;;;;;;;;5120160;28;20698;-71
2021/04/09 02:45:46;;;;;;;4.30;1.40;;;;;;;;;;5120545;28;20224;-71
2021/04/09 02:48:14;;;;;;;5.93;1.40;;;;;;;;;;5120730;28;20261;-71
2021/04/09 02:50:43;;;;;;;5.20;1.10;;;;;;;;;;5120627;28;20289;-71
2021/04/09 02:53:12;;;;;;;5.40;0.90;;;;;;;;;;5120571;28;20296;-70
2021/04/09 02:55:42;;;;;;;2.63;1.47;;;;;;;;;;5120342;28;20260;-70
2021/04/09 02:58:09;;;;;;;4.13;1.00;;;;;;;;;;5119396;28;20284;-70
2021/04/09 03:00:37;;;;;;;3.40;0.93;;;;;;;;;;5120014;28;20292;-70
2021/04/09 03:03:05;;;;;;;5.23;1.27;;;;;;;;;;5120389;28;20287;-70
2021/04/09 03:05:32;;;;;;;2.57;1.30;;;;;;;;;;5120357;28;20267;-70
2021/04/09 03:07:59;;;;;;;4.33;1.30;;;;;;;;;;5120223;28;20284;-70
2021/04/09 03:10:27;;;;;;;2.60;1.00;;;;;;;;;;5120367;28;20208;-70
2021/04/09 03:12:55;;;;;;;4.87;1.07;;;;;;;;;;5120205;28;20296;-70
2021/04/09 03:15:24;;;;;;;4.53;1.30;;;;;;;;;;5120143;28;20224;-70
2021/04/09 03:17:54;;;;;;;5.43;1.20;;;;;;;;;;5120107;28;20312;-71
2021/04/09 03:20:21;;;;;;;2.63;1.10;;;;;;;;;;5120164;28;20212;-71
2021/04/09 03:22:48;;;;;;;3.00;1.10;;;;;;;;;;5120225;28;20232;-71
2021/04/09 03:25:16;;;;;;;2.17;1.13;;;;;;;;;;5119600;28;20309;-71
2021/04/09 03:27:43;;;;;;;2.30;0.83;;;;;;;;;;5119812;28;20224;-71
2021/04/09 03:30:12;;;;;;;7.73;1.23;;;;;;;;;;5119567;28;20288;-71
2021/04/09 03:32:39;;;;;;;6.10;1.33;;;;;;;;;;5119448;28;20209;-71
2021/04/09 03:35:06;;;;;;;2.60;1.33;;;;;;;;;;5119347;28;20664;-71
2021/04/09 03:37:33;;;;;;;2.53;0.97;;;;;;;;;;5119662;28;20312;-71
2021/04/09 03:40:01;;;;;;;6.70;1.47;;;;;;;;;;5119677;28;20288;-71
2021/04/09 03:42:28;;;;;;;2.17;1.00;;;;;;;;;;5119331;28;20280;-71
2021/04/09 03:44:55;;;;;;;7.60;1.80;;;;;;;;;;5119166;28;20252;-71
2021/04/09 03:47:23;;;;;;;5.10;1.20;;;;;;;;;;5119478;28;20232;-71
2021/04/09 03:49:50;;;;;;;4.87;1.13;;;;;;;;;;5119203;28;20677;-71
2021/04/09 03:52:17;;;;;;;2.47;1.17;;;;;;;;;;5119490;28;20204;-71
2021/04/09 03:54:44;;;;;;;5.43;1.20;;;;;;;;;;5119440;27;20308;-71
2021/04/09 03:57:11;;;;;;;4.20;1.17;;;;;;;;;;5119171;28;20225;-71
2021/04/09 03:59:38;;;;;;;5.20;1.43;;;;;;;;;;5119042;28;20288;-71
2021/04/09 04:02:05;;;;;;;3.67;1.10;;;;;;;;;;5119038;28;20286;-71
2021/04/09 04:04:33;;;;;;;3.10;1.07;;;;;;;;;;5119143;27;20232;-72
2021/04/09 04:07:00;;;;;;;3.33;1.87;;;;;;;;;;5119132;28;20208;-71
2021/04/09 04:09:27;;;;;;;9.30;1.70;;;;;;;;;;5119095;28;20287;-72
2021/04/09 04:11:54;;;;;;;3.97;1.33;;;;;;;;;;5119100;28;20205;-71
2021/04/09 04:14:23;;;;;;;5.30;1.23;;;;;;;;;;5118667;28;20229;-71
2021/04/09 04:16:50;;;;;;;1.17;1.03;;;;;;;;;;5118829;28;20311;-71
2021/04/09 04:19:18;;;;;;;4.13;1.13;;;;;;;;;;5118902;28;20201;-71
2021/04/09 04:21:46;;;;;;;3.13;1.23;;;;;;;;;;5118932;28;20289;-71
2021/04/09 04:24:13;;;;;;;6.87;1.13;;;;;;;;;;5118398;28;20245;-71
2021/04/09 04:26:40;;;;;;;5.03;1.07;;;;;;;;;;5118767;28;20197;-71
2021/04/09 04:29:07;;;;;;;4.87;1.67;;;;;;;;;;5118615;28;20208;-72
2021/04/09 04:31:34;;;;;;;2.17;1.40;;;;;;;;;;5118548;28;20288;-71
2021/04/09 04:34:01;;;;;;;2.83;1.13;;;;;;;;;;5118454;28;20577;-72
2021/04/09 04:36:28;;;;;;;4.07;1.53;;;;;;;;;;5118645;28;20204;-72
2021/04/09 04:38:56;;;;;;;4.57;0.87;;;;;;;;;;5118470;28;20688;-72
2021/04/09 04:41:23;;;;;;;3.43;1.33;;;;;;;;;;5118598;28;20209;-71
2021/04/09 04:43:50;;;;;;;4.40;1.27;;;;;;;;;;5118245;28;20236;-71
2021/04/09 04:46:18;;;;;;;2.20;0.90;;;;;;;;;;5118422;28;20224;-71
2021/04/09 04:48:45;;;;;;;2.77;0.90;;;;;;;;;;5118587;28;20216;-72
2021/04/09 04:51:12;;;;;;;2.63;1.00;;;;;;;;;;5118302;28;20292;-71
2021/04/09 04:53:39;;;;;;;3.40;1.10;;;;;;;;;;5118252;28;20640;-71
2021/04/09 04:56:07;;;;;;;8.30;1.30;;;;;;;;;;5118127;28;20815;-71
2021/04/09 04:58:35;;;;;;;1.90;0.87;;;;;;;;;;5118038;28;20759;-71
2021/04/09 05:01:02;;;;;;;3.30;1.30;;;;;;;;;;5118220;28;20296;-71
2021/04/09 05:03:29;;;;;;;6.50;1.17;;;;;;;;;;5118480;28;20205;-71
2021/04/09 05:05:56;;;;;;;2.93;1.30;;;;;;;;;;5118293;28;20292;-72
2021/04/09 05:08:23;;;;;;;3.03;1.20;;;;;;;;;;5118261;28;20264;-71
2021/04/09 05:10:50;;;;;;;3.50;1.27;;;;;;;;;;5118079;28;20209;-71
2021/04/09 05:13:19;;;;;;;2.83;1.07;;;;;;;;;;5117605;28;20645;-71
2021/04/09 05:15:46;;;;;;;1.33;0.83;;;;;;;;;;5118268;28;20232;-71
2021/04/09 05:18:13;;;;;;;4.77;1.30;;;;;;;;;;5117846;28;20232;-71
2021/04/09 05:20:40;;;;;;;8.27;1.43;;;;;;;;;;5118534;28;20291;-71
2021/04/09 05:23:07;;;;;;;7.30;1.53;;;;;;;;;;5122364;28;20291;-71
2021/04/09 05:25:34;;;;;;;1.80;0.90;;;;;;;;;;5122044;28;20767;-71
2021/04/09 05:28:01;;;;;;;2.40;1.20;;;;;;;;;;5121677;28;20270;-71
2021/04/09 05:30:29;;;;;;;3.27;1.13;;;;;;;;;;5121836;28;20208;-71
2021/04/09 05:32:56;;;;;;;3.80;0.93;;;;;;;;;;5122095;28;20284;-71
2021/04/09 05:35:25;;;;;;;9.73;1.83;;;;;;;;;;5122117;28;20248;-71
2021/04/09 05:37:52;;;;;;;7.77;2.70;;;;;;;;;;5121828;28;20229;-71
2021/04/09 05:40:20;;;;;;;6.57;1.53;;;;;;;;;;5122004;28;20236;-70
2021/04/09 05:42:55;;;;;;;3.50;1.07;;;;;;;;;;5121811;28;20216;-71
2021/04/09 05:45:23;;;;;;;1.93;1.20;;;;;;;;;;5121401;28;20220;-72
2021/04/09 05:47:53;;;;;;;5.10;1.10;;;;;;;;;;5122109;28;20787;-71
2021/04/09 05:50:20;;;;;;;3.67;1.30;;;;;;;;;;5121746;28;20273;-71
2021/04/09 05:52:47;;;;;;;5.63;1.30;;;;;;;;;;5121744;28;20320;-69
2021/04/09 05:55:14;;;;;;;3.97;1.40;;;;;;;;;;5121241;28;20664;-69
2021/04/09 05:57:42;;;;;;;2.93;1.50;;;;;;;;;;5121231;28;20299;-69
2021/04/09 06:00:10;;;;;;;3.70;1.67;;;;;;;;;;5121025;28;20648;-70
2021/04/09 06:02:37;;;;;;;7.70;1.60;;;;;;;;;;5121303;28;20568;-69
2021/04/09 06:05:06;;;;;;;2.33;1.03;;;;;;;;;;5121401;27;21058;-71
2021/04/09 06:07:33;;;;;;;8.03;1.40;;;;;;;;;;5121427;28;20232;-69
2021/04/09 06:10:00;;;;;;;7.53;1.40;;;;;;;;;;5121064;28;20299;-70
2021/04/09 06:12:27;;;;;;;4.00;1.60;;;;;;;;;;5121308;28;20222;-72
2021/04/09 06:14:54;;;;;;;4.60;1.30;;;;;;;;;;5120877;28;20225;-69
2021/04/09 06:17:21;;;;;;;4.60;1.40;;;;;;;;;;5120911;28;20651;-69
2021/04/09 06:19:48;;;;;;;4.77;1.40;;;;;;;;;;5121159;28;20204;-68
2021/04/09 06:22:17;;;;;;;4.80;1.23;;;;;;;;;;5121293;28;20286;-69
2021/04/09 06:24:44;;;;;;;2.70;1.20;;;;;;;;;;5120728;28;20342;-68
2021/04/09 06:27:11;;;;;;;9.87;1.53;;;;;;;;;;5120982;28;20232;-68
2021/04/09 06:29:37;;;;;;;1.20;0.90;;;;;;;;;;5120625;28;20284;-68
2021/04/09 06:32:07;;;;;;;2.83;1.17;;;;;;;;;;5120092;28;20209;-67
2021/04/09 06:34:34;;;;;;;3.47;1.10;;;;;;;;;;5120251;28;20688;-68
2021/04/09 06:37:01;;;;;;;5.80;1.30;;;;;;;;;;5120553;28;20311;-67
2021/04/09 06:39:29;;;;;;;2.80;1.10;;;;;;;;;;5120452;28;20645;-69
2021/04/09 06:41:56;;;;;;;5.27;1.40;;;;;;;;;;5120476;28;20707;-69
2021/04/09 06:44:23;;;;;;;4.97;1.57;;;;;;;;;;5120317;28;20308;-67
2021/04/09 06:46:50;;;;;;;7.70;1.80;;;;;;;;;;5120377;28;20284;-68
2021/04/09 06:49:17;;;;;;;6.53;1.37;;;;;;;;;;5120650;28;20209;-68
2021/04/09 06:51:45;;;;;;;3.40;1.50;;;;;;;;;;5121767;27;20280;-67
2021/04/09 06:54:12;;;;;;;4.50;1.30;;;;;;;;;;5121344;27;20224;-66
2021/04/09 06:56:40;;;;;;;5.00;1.40;;;;;;;;;;5120455;28;20228;-67
2021/04/09 06:59:10;;;;;;;9.63;1.57;;;;;;;;;;5120743;27;20269;-67
2021/04/09 07:01:38;;;;;;;7.10;1.27;;;;;;;;;;5117340;28;20201;-69
2021/04/09 07:04:06;;;;;;;1.77;1.23;;;;;;;;;;5120620;27;20209;-67
2021/04/09 07:06:33;;;;;;;1.60;1.30;;;;;;;;;;5121321;27;20236;-68
2021/04/09 07:09:00;;;;;;;3.50;1.27;;;;;;;;;;5119564;28;20193;-67
2021/04/09 07:11:28;;;;;;;3.77;1.30;;;;;;;;;;5123749;27;20295;-66
2021/04/09 07:13:56;;;;;;;7.77;2.03;;;;;;;;;;5140482;27;20214;-70
2021/04/09 07:16:23;;;;;;;5.77;2.27;;;;;;;;;;5135295;27;20204;-69
2021/04/09 07:18:51;;;;;;;5.40;1.30;;;;;;;;;;5108878;28;20224;-69
2021/04/09 07:21:19;;;;;;;4.03;1.90;;;;;;;;;;5114420;28;20201;-68
2021/04/09 07:23:46;;;;;;;2.07;1.40;;;;;;;;;;5107235;28;20661;-69
2021/04/09 07:26:36;;;;;;;2.57;1.27;;;;;;;;;;5107328;28;20296;-68
2021/04/09 07:29:04;;;;;;;3.07;1.40;;;;;;;;;;5107449;28;20280;-69
2021/04/09 07:31:32;;;;;;;6.30;1.67;;;;;;;;;;5106473;28;20285;-69
2021/04/09 07:34:01;;;;;;;7.53;1.50;;;;;;;;;;5107161;28;20198;-70
2021/04/09 07:36:29;;;;;;;3.77;1.20;;;;;;;;;;5109509;28;20240;-67
2021/04/09 07:38:56;;;;;;;1.87;1.57;;;;;;;;;;5106600;28;20221;-67
2021/04/09 07:41:23;;;;;;;2.93;1.40;;;;;;;;;;5104924;28;20688;-67
2021/04/09 07:43:51;;;;;;;2.43;1.53;;;;;;;;;;5107330;28;20288;-67
2021/04/09 07:46:23;;;;;;;2.07;1.20;;;;;;;;;;5106388;28;20720;-69
2021/04/09 07:49:01;;;;;;;5.53;1.67;;;;;;;;;;5107386;28;20201;-69
2021/04/09 07:51:28;;;;;;;2.57;1.40;;;;;;;;;;5108018;28;20336;-69
2021/04/09 07:54:07;;;;;;;2.87;1.47;;;;;;;;;;5106039;28;20284;-69
2021/04/09 07:56:41;;;;;;;14.60;1.50;;;;;;;;;;5110202;28;20287;-69
2021/04/09 07:59:08;;;;;;;1.83;1.20;;;;;;;;;;5119258;28;20256;-70
2021/04/09 08:01:46;;;;;;;0.90;0.90;;;;;;;;;;5119393;28;20268;-68
2021/04/09 08:04:14;;;;;;;1.23;1.00;;;;;;;;;;5118866;28;20307;-67
2021/04/09 08:06:41;;;;;;;4.53;1.87;;;;;;;;;;5119112;28;20208;-66
2021/04/09 08:09:08;;;;;;;4.83;1.30;;;;;;;;;;5118723;28;20230;-65
2021/04/09 08:11:36;;;;;;;9.50;1.50;;;;;;;;;;5118645;28;20232;-68
2021/04/09 08:14:07;;;;;;;4.27;1.30;;;;;;;;;;5118652;28;20272;-70
2021/04/09 08:16:36;;;;;;;2.17;1.10;;;;;;;;;;5119003;28;20219;-70
2021/04/09 08:19:06;;;;;;;1.90;0.83;;;;;;;;;;5118258;28;20225;-68
2021/04/09 08:21:34;;;;;;;4.20;1.20;;;;;;;;;;5117945;28;20197;-70
2021/04/09 08:24:01;;;;;;;5.93;1.23;;;;;;;;;;5116494;28;20264;-69
2021/04/09 08:26:28;;;;;;;3.23;1.30;;;;;;;;;;5116888;28;20664;-69
2021/04/09 08:28:55;;;;;;;3.23;1.50;;;;;;;;;;5116915;28;20236;-71
2021/04/09 08:31:23;;;;;;;2.67;0.90;;;;;;;;;;5116780;28;20229;-71
2021/04/09 08:33:51;;;;;;;5.63;1.27;;;;;;;;;;5117811;28;20295;-70
2021/04/09 08:36:18;;;;;;;6.40;1.40;;;;;;;;;;5118241;28;20278;-68
2021/04/09 08:38:46;;;;;;;2.10;1.20;;;;;;;;;;5118615;28;20261;-71
2021/04/09 08:41:14;;;;;;;2.93;1.20;;;;;;;;;;5118485;28;20648;-71
2021/04/09 08:43:41;;;;;;;4.10;1.13;;;;;;;;;;5117956;28;20236;-71
2021/04/09 08:46:08;;;;;;;7.53;2.23;;;;;;;;;;5118262;28;20255;-69
2021/04/09 08:48:38;;;;;;;7.03;1.97;;;;;;;;;;5118245;28;20545;-69
2021/04/09 08:51:07;;;;;;;3.33;1.10;;;;;;;;;;5118309;28;20205;-70
2021/04/09 08:53:34;;;;;;;10.07;2.80;;;;;;;;;;5118436;28;20239;-70
2021/04/09 08:56:01;;;;;;;3.63;1.13;;;;;;;;;;5117475;28;20256;-69
2021/04/09 08:58:30;;;;;;;2.50;1.30;;;;;;;;;;5117986;28;20260;-70
2021/04/09 09:01:09;;;;;;;5.10;1.80;;;;;;;;;;5118425;28;20209;-70
2021/04/09 09:03:36;;;;;;;5.60;1.57;;;;;;;;;;5118417;28;20211;-71
2021/04/09 09:06:04;;;;;;;4.70;1.50;;;;;;;;;;5118299;28;20706;-70
2021/04/09 09:08:55;;;;;;;1.23;0.90;;;;;;;;;;5118291;28;20262;-71
2021/04/09 09:11:36;;;;;;;9.03;1.00;;;;;;;;;;5118217;28;20211;-70
2021/04/09 09:14:24;;;;;;;4.90;1.13;;;;;;;;;;5117565;28;20236;-70
2021/04/09 09:16:52;;;;;;;4.30;1.00;;;;;;;;;;5117790;28;20631;-70
2021/04/09 09:19:37;;;;;;;5.73;1.57;;;;;;;;;;5117784;28;20256;-71
2021/04/09 09:22:10;;;;;;;8.63;1.23;;;;;;;;;;5118067;28;20240;-71
2021/04/09 09:24:57;;;;;;;8.23;1.37;;;;;;;;;;5117582;28;20276;-70
2021/04/09 09:27:39;;;;;;;9.33;1.20;;;;;;;;;;5117677;28;20201;-71
2021/04/09 09:30:26;;;;;;;1.77;1.07;;;;;;;;;;5117377;27;20673;-70
2021/04/09 09:33:08;;;;;;;1.87;1.00;;;;;;;;;;5118010;28;20240;-71
2021/04/09 09:35:53;;;;;;;6.40;1.20;;;;;;;;;;5117286;28;20270;-71
2021/04/09 09:38:35;;;;;;;3.63;1.10;;;;;;;;;;5117439;28;20231;-69
2021/04/09 09:41:03;;;;;;;3.57;1.27;;;;;;;;;;5117251;28;20204;-70
2021/04/09 09:43:30;;;;;;;4.60;0.93;;;;;;;;;;5117240;28;20239;-71
2021/04/09 09:45:58;;;;;;;6.30;1.20;;;;;;;;;;5117554;28;20217;-68
2021/04/09 09:48:25;;;;;;;11.83;1.63;;;;;;;;;;5117983;28;20289;-68
2021/04/09 09:50:52;;;;;;;3.97;1.37;;;;;;;;;;5117790;28;20228;-68
2021/04/09 09:53:19;;;;;;;23.60;4.63;;;;;;;;;;5105062;28;20281;-71
2021/04/09 09:55:48;;;;;;;25.10;5.03;;;;;;;;;;5104633;28;20221;-71
2021/04/09 09:58:16;;;;;;;36.53;7.10;;;;;;;;;;5104493;28;20253;-69
2021/04/09 10:00:44;;;;;;;25.60;5.83;;;;;;;;;;5102683;28;20197;-69
2021/04/09 10:03:14;;;;;;;18.63;4.40;;;;;;;;;;5104828;28;20289;-69
2021/04/09 10:05:42;;;;;;;40.50;5.93;;;;;;;;;;5103692;28;20735;-70
2021/04/09 10:08:09;;;;;;;7.23;1.70;;;;;;;;;;5106348;28;20620;-70
2021/04/09 10:10:39;;;;;;;28.03;5.10;;;;;;;;;;5108583;28;20280;-70
2021/04/09 10:13:17;;;;;;;1.50;1.00;;;;;;;;;;5108273;28;21847;-71
2021/04/09 10:15:44;;;;;;;2.27;1.10;;;;;;;;;;5103732;28;20248;-71
2021/04/09 10:18:11;;;;;;;3.43;1.00;;;;;;;;;;5109166;28;20257;-72
2021/04/09 10:20:39;;;;;;;2.13;1.10;;;;;;;;;;5123116;27;20666;-72
2021/04/09 10:23:06;;;;;;;9.73;1.10;;;;;;;;;;5141733;27;20232;-72
2021/04/09 10:25:34;;;;;;;3.80;1.50;;;;;;;;;;5141562;27;20330;-72
2021/04/09 10:28:01;;;;;;;4.33;1.00;;;;;;;;;;5140953;27;20207;-71
2021/04/09 10:30:29;;;;;;;3.00;1.13;;;;;;;;;;5109459;27;20288;-72
2021/04/09 10:32:56;;;;;;;2.20;1.13;;;;;;;;;;5107552;28;20198;-72
2021/04/09 10:35:24;;;;;;;3.90;1.63;;;;;;;;;;5112826;28;20216;-72
2021/04/09 10:37:52;;;;;;;8.23;1.57;;;;;;;;;;5120528;28;20273;-71
2021/04/09 10:40:19;;;;;;;5.47;1.40;;;;;;;;;;5114251;28;20229;-69
2021/04/09 10:42:58;;;;;;;4.17;1.07;;;;;;;;;;5106338;28;20229;-70
2021/04/09 10:45:25;;;;;;;4.33;1.03;;;;;;;;;;5104115;28;20308;-72
2021/04/09 10:47:53;;;;;;;3.03;1.10;;;;;;;;;;5120697;28;20664;-71
2021/04/09 10:50:20;;;;;;;3.50;1.10;;;;;;;;;;5120442;28;20215;-70
2021/04/09 10:52:47;;;;;;;2.10;1.07;;;;;;;;;;5114601;28;20229;-71
2021/04/09 10:55:17;;;;;;;5.80;1.10;;;;;;;;;;5131683;27;20224;-71
2021/04/09 10:57:44;;;;;;;3.87;1.07;;;;;;;;;;5140878;27;20273;-71
2021/04/09 11:00:12;;;;;;;2.10;1.13;;;;;;;;;;5122063;27;20232;-71
2021/04/09 11:02:39;;;;;;;1.90;1.30;;;;;;;;;;5120242;28;20259;-71
2021/04/09 11:05:07;;;;;;;2.30;1.00;;;;;;;;;;5118620;28;20288;-73
2021/04/09 11:07:42;;;;;;;2.47;1.27;;;;;;;;;;5120283;27;20200;-73
2021/04/09 11:10:33;;;;;;;8.53;1.70;;;;;;;;;;5120282;27;20215;-72
2021/04/09 11:13:00;;;;;;;7.70;1.23;;;;;;;;;;5136578;27;20207;-74
2021/04/09 11:15:38;;;;;;;6.13;1.33;;;;;;;;;;5140708;27;20259;-74
2021/04/09 11:18:05;;;;;;;2.80;1.00;;;;;;;;;;5109542;27;20220;-73
2021/04/09 11:20:33;;;;;;;2.67;1.00;;;;;;;;;;5118756;28;20226;-70
2021/04/09 11:23:01;;;;;;;4.33;1.10;;;;;;;;;;5108583;28;20633;-74
2021/04/09 11:25:32;;;;;;;5.40;1.10;;;;;;;;;;5137324;27;20291;-74
2021/04/09 11:28:00;;;;;;;3.27;1.10;;;;;;;;;;5134410;27;20201;-73
2021/04/09 11:30:29;;;;;;;6.70;1.07;;;;;;;;;;5119627;28;20205;-74
2021/04/09 11:32:58;;;;;;;2.03;1.00;;;;;;;;;;5119818;28;20243;-73
2021/04/09 11:35:25;;;;;;;4.40;0.87;;;;;;;;;;5118101;28;20225;-74
2021/04/09 11:37:53;;;;;;;3.63;1.30;;;;;;;;;;5115412;28;20277;-73
2021/04/09 11:40:33;;;;;;;2.83;1.10;;;;;;;;;;5118255;27;20270;-73
2021/04/09 11:43:01;;;;;;;3.07;0.93;;;;;;;;;;5117030;27;20232;-72
2021/04/09 11:45:38;;;;;;;5.50;0.80;;;;;;;;;;5117619;28;20221;-73
2021/04/09 11:48:20;;;;;;;4.77;1.00;;;;;;;;;;5119067;27;20224;-72
2021/04/09 11:50:47;;;;;;;1.80;1.50;;;;;;;;;;5116945;28;20273;-72
2021/04/09 11:53:14;;;;;;;6.03;1.17;;;;;;;;;;5122272;27;20721;-72
2021/04/09 11:55:41;;;;;;;2.27;1.30;;;;;;;;;;5105912;28;20590;-71
2021/04/09 11:58:17;;;;;;;8.33;1.50;;;;;;;;;;5104382;28;20308;-72
2021/04/09 12:00:53;;;;;;;2.00;0.90;;;;;;;;;;5103817;28;20208;-71
2021/04/09 12:03:20;;;;;;;5.60;1.40;;;;;;;;;;5102404;28;20304;-71
2021/04/09 12:05:47;;;;;;;7.30;1.23;;;;;;;;;;5106635;28;20300;-72
2021/04/09 12:08:14;;;;;;;3.30;1.10;;;;;;;;;;5103052;28;20289;-71
2021/04/09 12:10:41;;;;;;;2.50;1.17;;;;;;;;;;5105392;28;20274;-73
2021/04/09 12:13:08;;;;;;;3.70;1.17;;;;;;;;;;5121758;27;20239;-71
2021/04/09 12:15:36;;;;;;;5.80;1.10;;;;;;;;;;5137684;27;20770;-71
2021/04/09 12:18:03;;;;;;;3.17;1.10;;;;;;;;;;5122696;27;20228;-71
2021/04/09 12:20:30;;;;;;;3.67;0.90;;;;;;;;;;5118569;28;20240;-71
2021/04/09 12:22:57;;;;;;;5.73;1.10;;;;;;;;;;5118945;28;20287;-70
2021/04/09 12:25:24;;;;;;;8.63;1.23;;;;;;;;;;5118493;28;20665;-71
2021/04/09 12:27:51;;;;;;;4.33;1.00;;;;;;;;;;5118382;28;20222;-71
2021/04/09 12:30:19;;;;;;;5.20;1.20;;;;;;;;;;5117889;28;20211;-71
2021/04/09 12:32:47;;;;;;;4.30;1.07;;;;;;;;;;5118569;28;20611;-70
2021/04/09 12:35:14;;;;;;;2.13;1.00;;;;;;;;;;5118265;28;20581;-71
2021/04/09 12:37:41;;;;;;;4.83;1.87;;;;;;;;;;5118517;28;20236;-72
2021/04/09 12:40:09;;;;;;;1.63;0.90;;;;;;;;;;5118609;28;20201;-71
2021/04/09 12:42:36;;;;;;;3.13;1.00;;;;;;;;;;5118389;28;20292;-71
2021/04/09 12:45:04;;;;;;;5.50;1.00;;;;;;;;;;5118059;28;20700;-73
2021/04/09 12:47:31;;;;;;;2.37;0.90;;;;;;;;;;5118503;28;20284;-73
2021/04/09 12:49:59;;;;;;;4.43;1.00;;;;;;;;;;5118388;28;20300;-74
2021/04/09 12:52:26;;;;;;;4.77;1.00;;;;;;;;;;5118450;28;20264;-73
2021/04/09 12:54:53;;;;;;;2.70;0.70;;;;;;;;;;5118416;28;20896;-73
2021/04/09 12:57:20;;;;;;;1.23;0.87;;;;;;;;;;5118140;28;20260;-73
2021/04/09 12:59:47;;;;;;;2.60;1.00;;;;;;;;;;5118065;28;20221;-74
2021/04/09 13:02:30;;;;;;;6.13;1.67;;;;;;;;;;5118196;28;20208;-73
2021/04/09 13:04:57;;;;;;;8.33;1.43;;;;;;;;;;5118282;28;20229;-73
2021/04/09 13:07:25;;;;;;;2.23;1.40;;;;;;;;;;5118226;28;20208;-73
2021/04/09 13:09:52;;;;;;;3.50;1.17;;;;;;;;;;5118334;28;20235;-73
2021/04/09 13:12:20;;;;;;;3.93;0.97;;;;;;;;;;5117945;28;20387;-73
2021/04/09 13:14:47;;;;;;;1.93;0.93;;;;;;;;;;5118052;28;20290;-73
2021/04/09 13:17:14;;;;;;;5.50;1.17;;;;;;;;;;5118226;28;20232;-74
2021/04/09 13:19:41;;;;;;;4.13;1.17;;;;;;;;;;5117770;28;20316;-71
2021/04/09 13:22:09;;;;;;;5.47;1.50;;;;;;;;;;5117187;28;20233;-70
2021/04/09 13:24:37;;;;;;;4.40;1.23;;;;;;;;;;5118363;28;20656;-71
2021/04/09 13:27:05;;;;;;;3.27;1.30;;;;;;;;;;5118997;28;20575;-70
2021/04/09 13:29:32;;;;;;;2.47;1.13;;;;;;;;;;5118040;28;20193;-70
2021/04/09 13:31:59;;;;;;;1.70;1.07;;;;;;;;;;5118974;27;20285;-70
2021/04/09 13:34:29;;;;;;;6.50;1.30;;;;;;;;;;5117793;28;20227;-69
2021/04/09 13:36:56;;;;;;;1.30;1.03;;;;;;;;;;5118476;28;20536;-70
2021/04/09 13:39:23;;;;;;;7.43;1.00;;;;;;;;;;5119262;28;20209;-70
2021/04/09 13:41:52;;;;;;;7.07;1.50;;;;;;;;;;5115562;28;20209;-69
2021/04/09 13:44:20;;;;;;;5.27;1.33;;;;;;;;;;5123688;27;20627;-71
2021/04/09 13:46:48;;;;;;;5.07;1.30;;;;;;;;;;5121971;27;20193;-70
2021/04/09 13:49:15;;;;;;;12.03;1.17;;;;;;;;;;5124166;27;20281;-70
2021/04/09 13:51:42;;;;;;;5.20;1.17;;;;;;;;;;5142157;27;20291;-70
2021/04/09 13:54:09;;;;;;;3.40;1.07;;;;;;;;;;5135252;27;20728;-68
2021/04/09 13:56:36;;;;;;;2.43;1.13;;;;;;;;;;5121787;27;20287;-70
2021/04/09 13:59:05;;;;;;;3.53;1.37;;;;;;;;;;5141627;27;20269;-69
2021/04/09 14:01:32;;;;;;;4.23;1.03;;;;;;;;;;5142227;27;20290;-70
2021/04/09 14:03:59;;;;;;;6.90;1.30;;;;;;;;;;5141805;27;20555;-70
2021/04/09 14:06:25;;;;;;;4.53;1.37;;;;;;;;;;5141747;27;20210;-70
2021/04/09 14:08:52;;;;;;;3.67;0.90;;;;;;;;;;5141936;27;20263;-70
2021/04/09 14:11:20;;;;;;;3.17;1.03;;;;;;;;;;5141628;27;20278;-70
2021/04/09 14:13:47;;;;;;;3.43;0.90;;;;;;;;;;5141618;27;20214;-70
2021/04/09 14:16:15;;;;;;;5.03;1.20;;;;;;;;;;5141765;27;20228;-70
2021/04/09 14:18:42;;;;;;;4.40;0.97;;;;;;;;;;5141721;27;20235;-70
2021/04/09 14:21:09;;;;;;;3.43;1.17;;;;;;;;;;5141775;27;20243;-70
2021/04/09 14:23:36;;;;;;;2.60;0.90;;;;;;;;;;5141361;27;20231;-70
2021/04/09 14:26:03;;;;;;;3.93;1.30;;;;;;;;;;5141745;27;20231;-70
2021/04/09 14:28:30;;;;;;;2.23;0.90;;;;;;;;;;5141219;27;20223;-70
2021/04/09 14:31:00;;;;;;;1.40;1.07;;;;;;;;;;5141851;27;20204;-70
2021/04/09 14:33:28;;;;;;;1.70;0.73;;;;;;;;;;5128187;27;20744;-69
2021/04/09 14:35:55;;;;;;;4.83;1.20;;;;;;;;;;5120744;28;20263;-70
2021/04/09 14:38:23;;;;;;;3.13;1.00;;;;;;;;;;5120475;28;20252;-70
2021/04/09 14:40:50;;;;;;;5.70;1.17;;;;;;;;;;5120541;28;20235;-70
2021/04/09 14:43:17;;;;;;;5.80;1.30;;;;;;;;;;5120175;28;20228;-70
2021/04/09 14:45:44;;;;;;;2.27;1.20;;;;;;;;;;5120347;28;20718;-70
2021/04/09 14:48:11;;;;;;;2.27;1.10;;;;;;;;;;5119456;28;20204;-70
2021/04/09 14:50:39;;;;;;;7.23;1.93;;;;;;;;;;5120434;28;20204;-70
2021/04/09 14:53:06;;;;;;;2.73;1.30;;;;;;;;;;5119947;28;20201;-68